createdAt,value
2018-02-16T00:01:32.907Z,36.13
2018-02-16T00:04:00.448Z,29.50
2018-02-16T00:06:27.983Z,34.35
2018-02-16T00:08:55.517Z,43.38
2018-02-16T00:11:23.042Z,38.97
2018-02-16T00:13:50.570Z,46.13
2018-02-16T00:16:18.105Z,41.08
2018-02-16T00:18:45.625Z,36.55
2018-02-16T00:21:13.138Z,36.28
2018-02-16T00:23:40.721Z,33.35
2018-02-16T00:26:08.237Z,32.72
2018-02-16T00:28:35.780Z,32.22
2018-02-16T00:31:03.329Z,32.80
2018-02-16T00:33:30.849Z,33.47
2018-02-16T00:35:58.380Z,34.22
2018-02-16T00:38:25.936Z,28.00
2018-02-16T00:40:53.476Z,28.48
2018-02-16T00:43:21.031Z,28.75
2018-02-16T00:45:48.583Z,33.05
2018-02-16T00:48:16.117Z,34.47
2018-02-16T00:50:43.650Z,28.80
2018-02-16T00:53:11.224Z,36.97
2018-02-16T00:55:38.755Z,32.55
2018-02-16T00:58:06.291Z,32.95
2018-02-16T01:00:33.849Z,28.90
2018-02-16T01:03:01.402Z,35.25
2018-02-16T01:05:28.921Z,29.77
2018-02-16T01:07:56.472Z,36.15
2018-02-16T01:10:24.021Z,33.50
2018-02-16T01:12:51.556Z,35.90
2018-02-16T01:15:19.239Z,37.72
2018-02-16T01:17:46.758Z,40.20
2018-02-16T01:20:14.333Z,41.05
2018-02-16T01:22:42.138Z,42.00
2018-02-16T01:25:09.671Z,49.55
2018-02-16T01:27:37.221Z,35.47
2018-02-16T01:30:06.506Z,40.10
2018-02-16T01:32:34.030Z,30.23
2018-02-16T01:35:01.561Z,35.38
2018-02-16T01:37:29.114Z,33.80
2018-02-16T01:39:56.633Z,33.20
2018-02-16T01:42:24.166Z,31.60
2018-02-16T01:44:51.712Z,36.33
2018-02-16T01:47:19.240Z,31.85
2018-02-16T01:49:58.389Z,34.35
2018-02-16T01:52:26.185Z,30.58
2018-02-16T01:54:53.717Z,28.70
2018-02-16T01:57:21.262Z,33.10
2018-02-16T01:59:48.789Z,31.90
2018-02-16T02:02:16.454Z,31.90
2018-02-16T02:04:43.991Z,30.05
2018-02-16T02:07:11.528Z,33.55
2018-02-16T02:09:39.114Z,30.58
2018-02-16T02:12:06.656Z,31.17
2018-02-16T02:14:34.177Z,30.12
2018-02-16T02:17:01.721Z,26.80
2018-02-16T02:19:29.265Z,33.08
2018-02-16T02:21:56.796Z,24.65
2018-02-16T02:24:24.616Z,30.50
2018-02-16T02:26:52.147Z,32.42
2018-02-16T02:29:19.673Z,30.30
2018-02-16T02:31:47.233Z,31.30
2018-02-16T02:34:14.780Z,32.40
2018-02-16T02:36:42.306Z,29.23
2018-02-16T02:39:09.871Z,32.28
2018-02-16T02:41:37.412Z,44.00
2018-02-16T02:44:04.940Z,37.60
2018-02-16T02:46:32.554Z,35.95
2018-02-16T02:49:00.096Z,27.90
2018-02-16T02:51:27.627Z,32.80
2018-02-16T02:53:55.183Z,29.83
2018-02-16T02:56:22.726Z,29.73
2018-02-16T02:58:50.254Z,32.90
2018-02-16T03:01:17.797Z,26.92
2018-02-16T03:03:45.348Z,24.23
2018-02-16T03:06:12.896Z,26.73
2018-02-16T03:08:40.821Z,28.70
2018-02-16T03:11:08.369Z,29.15
2018-02-16T03:13:35.913Z,32.60
2018-02-16T03:16:03.489Z,27.52
2018-02-16T03:18:31.026Z,30.23
2018-02-16T03:20:58.568Z,35.45
2018-02-16T03:23:26.122Z,28.90
2018-02-16T03:25:53.655Z,28.45
2018-02-16T03:28:21.182Z,29.75
2018-02-16T03:30:48.730Z,26.30
2018-02-16T03:33:16.257Z,28.17
2018-02-16T03:35:43.787Z,25.62
2018-02-16T03:38:11.373Z,22.58
2018-02-16T03:40:38.921Z,24.73
2018-02-16T03:43:06.468Z,19.83
2018-02-16T03:45:34.047Z,21.52
2018-02-16T03:48:01.621Z,22.55
2018-02-16T03:50:29.157Z,22.58
2018-02-16T03:52:56.986Z,26.60
2018-02-16T03:55:24.549Z,21.50
2018-02-16T03:57:52.074Z,22.48
2018-02-16T04:00:19.638Z,23.80
2018-02-16T04:02:47.179Z,24.65
2018-02-16T04:05:14.728Z,24.98
2018-02-16T04:07:42.287Z,28.52
2018-02-16T04:10:09.817Z,33.03
2018-02-16T04:12:37.385Z,30.05
2018-02-16T04:15:04.945Z,31.08
2018-02-16T04:17:32.508Z,32.33
2018-02-16T04:20:00.049Z,35.38
2018-02-16T04:22:27.596Z,36.38
2018-02-16T04:24:55.131Z,42.58
2018-02-16T04:27:22.940Z,33.80
2018-02-16T04:29:50.501Z,29.05
2018-02-16T04:32:18.053Z,24.95
2018-02-16T04:34:45.581Z,21.83
2018-02-16T04:37:13.120Z,25.00
2018-02-16T04:39:40.729Z,22.48
2018-02-16T04:42:08.248Z,23.95
2018-02-16T04:44:35.777Z,24.50
2018-02-16T04:47:03.339Z,21.30
2018-02-16T04:49:30.879Z,23.90
2018-02-16T04:51:58.418Z,23.30
2018-02-16T04:54:25.987Z,21.05
2018-02-16T04:56:53.546Z,25.85
2018-02-16T04:59:21.462Z,24.40
2018-02-16T05:01:49.152Z,22.62
2018-02-16T05:04:16.698Z,25.85
2018-02-16T05:06:44.246Z,25.67
2018-02-16T05:09:11.799Z,22.83
2018-02-16T05:11:39.326Z,28.05
2018-02-16T05:14:06.877Z,24.77
2018-02-16T05:16:34.417Z,25.27
2018-02-16T05:19:01.939Z,25.55
2018-02-16T05:21:29.475Z,22.83
2018-02-16T05:23:57.060Z,22.17
2018-02-16T05:26:24.603Z,23.25
2018-02-16T05:28:52.408Z,22.52
2018-02-16T05:31:19.994Z,26.40
2018-02-16T05:33:47.526Z,25.80
2018-02-16T05:36:15.098Z,24.00
2018-02-16T05:38:42.672Z,24.90
2018-02-16T05:41:10.240Z,22.42
2018-02-16T05:43:37.767Z,30.63
2018-02-16T05:46:05.340Z,23.90
2018-02-16T05:48:32.884Z,23.53
2018-02-16T05:51:00.408Z,27.87
2018-02-16T05:53:27.963Z,26.10
2018-02-16T05:55:55.510Z,31.40
2018-02-16T05:58:23.055Z,28.47
2018-02-16T06:00:50.674Z,38.88
2018-02-16T06:03:18.227Z,32.45
2018-02-16T06:05:45.757Z,33.20
2018-02-16T06:08:13.294Z,28.77
2018-02-16T06:10:40.835Z,35.88
2018-02-16T06:13:08.380Z,35.08
2018-02-16T06:15:35.925Z,27.90
2018-02-16T06:18:03.447Z,35.03
2018-02-16T06:20:30.983Z,39.72
2018-02-16T06:22:58.551Z,42.10
2018-02-16T06:25:26.168Z,42.00
2018-02-16T06:27:53.755Z,48.28
2018-02-16T06:30:21.323Z,39.45
2018-02-16T06:32:48.870Z,30.15
2018-02-16T06:35:16.403Z,25.80
2018-02-16T06:37:44.120Z,27.67
2018-02-16T06:40:11.654Z,25.15
2018-02-16T06:42:39.240Z,29.80
2018-02-16T06:45:06.813Z,35.65
2018-02-16T06:47:34.342Z,28.08
2018-02-16T06:50:01.887Z,29.85
2018-02-16T06:52:29.469Z,42.95
2018-02-16T06:54:56.992Z,30.33
2018-02-16T06:57:24.518Z,37.38
2018-02-16T06:59:52.066Z,37.88
2018-02-16T07:02:19.617Z,29.05
2018-02-16T07:04:47.141Z,27.73
2018-02-16T07:07:14.668Z,29.55
2018-02-16T07:09:42.218Z,28.90
2018-02-16T07:12:09.737Z,28.60
2018-02-16T07:14:37.268Z,35.53
2018-02-16T07:17:04.808Z,28.80
2018-02-16T07:19:32.328Z,29.00
2018-02-16T07:21:59.865Z,27.83
2018-02-16T07:24:27.535Z,29.60
2018-02-16T07:26:55.072Z,36.43
2018-02-16T07:29:22.617Z,35.23
2018-02-16T07:31:50.196Z,35.57
2018-02-16T07:34:17.746Z,30.00
2018-02-16T07:36:45.315Z,36.10
2018-02-16T07:39:12.861Z,32.13
2018-02-16T07:41:40.377Z,26.20
2018-02-16T07:44:07.898Z,27.43
2018-02-16T07:46:35.447Z,32.97
2018-02-16T07:49:02.963Z,29.90
2018-02-16T07:51:30.488Z,34.13
2018-02-16T07:53:58.037Z,32.17
2018-02-16T07:56:25.549Z,28.37
2018-02-16T07:58:53.061Z,28.70
2018-02-16T08:01:20.607Z,35.70
2018-02-16T08:03:48.380Z,31.23
2018-02-16T08:06:15.918Z,28.07
2018-02-16T08:08:43.700Z,35.57
2018-02-16T08:11:11.245Z,42.20
2018-02-16T08:13:38.778Z,33.27
2018-02-16T08:16:06.318Z,34.73
2018-02-16T08:18:34.070Z,70.97
2018-02-16T08:21:01.593Z,55.30
2018-02-16T08:23:29.425Z,65.37
2018-02-16T08:25:56.963Z,53.63
2018-02-16T08:28:24.496Z,54.97
2018-02-16T08:30:52.067Z,51.93
2018-02-16T08:33:19.611Z,47.60
2018-02-16T08:35:47.266Z,61.97
2018-02-16T08:38:14.810Z,51.03
2018-02-16T08:40:42.344Z,54.67
2018-02-16T08:43:09.878Z,49.40
2018-02-16T08:45:37.478Z,51.03
2018-02-16T08:48:05.020Z,48.93
2018-02-16T08:50:32.589Z,57.20
2018-02-16T08:53:00.153Z,50.30
2018-02-16T08:55:27.680Z,48.67
2018-02-16T08:57:55.193Z,51.73
2018-02-16T09:00:22.816Z,48.83
2018-02-16T09:02:50.344Z,53.27
2018-02-16T09:05:17.853Z,57.73
2018-02-16T09:07:45.400Z,54.57
2018-02-16T09:10:12.942Z,72.37
2018-02-16T09:12:40.481Z,65.20
2018-02-16T09:15:08.034Z,60.53
2018-02-16T09:17:35.606Z,56.63
2018-02-16T09:20:03.148Z,56.90
2018-02-16T09:22:30.744Z,57.30
2018-02-16T09:24:58.294Z,61.47
2018-02-16T09:27:25.852Z,53.57
2018-02-16T09:29:53.896Z,57.93
2018-02-16T09:32:21.447Z,62.30
2018-02-16T09:34:48.993Z,52.27
2018-02-16T09:37:17.087Z,54.57
2018-02-16T09:39:45.047Z,67.77
2018-02-16T09:42:12.587Z,61.83
2018-02-16T09:44:40.159Z,51.60
2018-02-16T09:47:07.738Z,52.27
2018-02-16T09:49:35.265Z,60.37
2018-02-16T09:52:02.810Z,55.70
2018-02-16T09:54:30.386Z,47.17
2018-02-16T09:56:57.912Z,60.57
2018-02-16T09:59:25.434Z,55.80
2018-02-16T10:01:53.137Z,46.60
2018-02-16T10:04:20.674Z,49.50
2018-02-16T10:06:48.208Z,56.10
2018-02-16T10:09:15.772Z,61.27
2018-02-16T10:11:43.332Z,54.60
2018-02-16T10:14:10.880Z,58.73
2018-02-16T10:16:38.421Z,48.93
2018-02-16T10:19:05.957Z,42.63
2018-02-16T10:21:33.483Z,44.57
2018-02-16T10:24:01.047Z,45.00
2018-02-16T10:26:28.707Z,49.40
2018-02-16T10:28:56.248Z,47.80
2018-02-16T10:31:23.793Z,45.93
2018-02-16T10:33:51.340Z,39.70
2018-02-16T10:36:18.862Z,39.73
2018-02-16T10:38:46.428Z,39.27
2018-02-16T10:41:13.958Z,41.13
2018-02-16T10:43:41.496Z,39.70
2018-02-16T10:46:09.091Z,44.40
2018-02-16T10:48:36.628Z,40.33
2018-02-16T10:51:04.165Z,38.17
2018-02-16T10:53:31.744Z,52.83
2018-02-16T10:55:59.290Z,39.87
2018-02-16T10:58:26.820Z,42.87
2018-02-16T11:00:59.874Z,45.37
2018-02-16T11:03:32.959Z,46.67
2018-02-16T11:06:01.430Z,40.47
2018-02-16T11:08:34.505Z,44.83
2018-02-16T11:11:02.110Z,42.90
2018-02-16T11:13:29.724Z,39.33
2018-02-16T11:15:57.280Z,45.23
2018-02-16T11:18:24.880Z,44.00
2018-02-16T11:20:53.332Z,45.47
2018-02-16T11:23:20.982Z,41.77
2018-02-16T11:25:48.534Z,42.20
2018-02-16T11:28:16.099Z,42.40
2018-02-16T11:30:43.705Z,41.40
2018-02-16T11:33:11.224Z,40.83
2018-02-16T11:35:38.747Z,39.40
2018-02-16T11:38:06.296Z,42.13
2018-02-16T11:40:33.823Z,45.30
2018-02-16T11:43:01.420Z,42.63
2018-02-16T11:45:29.073Z,50.07
2018-02-16T11:47:56.652Z,38.80
2018-02-16T11:50:24.204Z,39.93
2018-02-16T11:52:51.760Z,43.83
2018-02-16T11:55:19.277Z,48.57
2018-02-16T11:57:46.801Z,41.33
2018-02-16T12:00:14.370Z,39.73
2018-02-16T12:02:42.223Z,51.40
2018-02-16T12:05:09.893Z,45.00
2018-02-16T12:07:37.546Z,42.47
2018-02-16T12:10:05.094Z,49.90
2018-02-16T12:12:32.628Z,47.80
2018-02-16T12:15:00.198Z,47.63
2018-02-16T12:17:27.742Z,38.17
2018-02-16T12:19:55.290Z,49.63
2018-02-16T12:22:22.843Z,39.63
2018-02-16T12:24:50.380Z,46.33
2018-02-16T12:27:18.851Z,47.37
2018-02-16T12:29:46.405Z,43.53
2018-02-16T12:32:14.375Z,43.87
2018-02-16T12:34:42.153Z,44.70
2018-02-16T12:37:09.783Z,52.20
2018-02-16T12:39:37.342Z,45.27
2018-02-16T12:42:04.886Z,50.57
2018-02-16T12:44:32.422Z,44.80
2018-02-16T12:46:59.961Z,43.10
2018-02-16T12:49:27.516Z,41.03
2018-02-16T12:51:55.089Z,46.37
2018-02-16T12:54:22.629Z,42.23
2018-02-16T12:56:50.147Z,45.37
2018-02-16T12:59:17.665Z,41.07
2018-02-16T13:01:45.206Z,45.33
2018-02-16T13:04:12.784Z,37.50
2018-02-16T13:06:40.319Z,37.40
2018-02-16T13:09:08.468Z,41.10
2018-02-16T13:11:35.991Z,40.37
2018-02-16T13:14:03.556Z,38.00
2018-02-16T13:16:31.127Z,41.70
2018-02-16T13:18:58.705Z,42.23
2018-02-16T13:21:26.191Z,44.40
2018-02-16T13:23:54.566Z,39.90
2018-02-16T13:26:22.099Z,42.20
2018-02-16T13:28:49.628Z,44.90
2018-02-16T13:31:17.174Z,43.40
2018-02-16T13:33:45.186Z,45.70
2018-02-16T13:36:12.708Z,40.63
2018-02-16T13:38:40.248Z,44.83
2018-02-16T13:41:07.796Z,38.90
2018-02-16T13:43:35.521Z,41.60
2018-02-16T13:46:03.206Z,46.90
2018-02-16T13:48:30.779Z,45.70
2018-02-16T13:50:58.397Z,49.60
2018-02-16T13:53:25.991Z,47.60
2018-02-16T13:55:54.829Z,41.13
2018-02-16T13:58:22.422Z,46.77
2018-02-16T14:00:51.985Z,43.50
2018-02-16T14:03:20.463Z,44.83
2018-02-16T14:05:48.181Z,42.37
2018-02-16T14:08:15.958Z,41.63
2018-02-16T14:10:43.477Z,48.20
2018-02-16T14:13:11.026Z,42.00
2018-02-16T14:15:38.846Z,43.47
2018-02-16T14:18:06.392Z,45.60
2018-02-16T14:20:33.928Z,46.20
2018-02-16T14:23:01.485Z,39.40
2018-02-16T14:25:29.070Z,47.53
2018-02-16T14:27:56.881Z,46.93
2018-02-16T14:30:24.445Z,40.90
2018-02-16T14:32:51.977Z,34.40
2018-02-16T14:35:20.361Z,37.70
2018-02-16T14:37:49.091Z,40.67
2018-02-16T14:40:16.613Z,46.83
2018-02-16T14:42:44.140Z,44.13
2018-02-16T14:45:11.711Z,48.07
2018-02-16T14:47:39.229Z,37.77
2018-02-16T14:50:06.773Z,45.97
2018-02-16T14:52:34.812Z,38.90
2018-02-16T14:55:02.344Z,39.80
2018-02-16T14:57:29.901Z,40.63
2018-02-16T14:59:57.463Z,52.93
2018-02-16T15:02:26.353Z,49.80
2018-02-16T15:04:53.897Z,45.07
2018-02-16T15:07:21.432Z,42.63
2018-02-16T15:09:49.035Z,48.43
2018-02-16T15:12:16.567Z,45.13
2018-02-16T15:14:44.103Z,39.53
2018-02-16T15:17:11.642Z,42.77
2018-02-16T15:19:39.172Z,34.40
2018-02-16T15:22:10.487Z,40.07
2018-02-16T15:24:38.071Z,41.63
2018-02-16T15:27:05.585Z,53.53
2018-02-16T15:29:33.141Z,38.07
2018-02-16T15:32:00.715Z,34.50
2018-02-16T15:34:28.278Z,42.27
2018-02-16T15:36:55.824Z,45.10
2018-02-16T15:39:23.374Z,44.40
2018-02-16T15:41:50.914Z,33.13
2018-02-16T15:44:18.495Z,42.90
2018-02-16T15:46:46.028Z,29.43
2018-02-16T15:49:13.559Z,42.03
2018-02-16T15:51:41.081Z,47.27
2018-02-16T15:54:08.681Z,62.23
2018-02-16T15:56:36.425Z,41.60
2018-02-16T15:59:03.971Z,38.10
2018-02-16T16:01:31.539Z,35.60
2018-02-16T16:03:59.086Z,45.90
2018-02-16T16:06:26.655Z,34.33
2018-02-16T16:08:54.272Z,49.30
2018-02-16T16:11:21.809Z,46.70
2018-02-16T16:13:49.381Z,42.37
2018-02-16T16:16:16.969Z,40.70
2018-02-16T16:18:44.525Z,52.20
2018-02-16T16:21:12.855Z,46.60
2018-02-16T16:23:40.425Z,44.13
2018-02-16T16:26:07.970Z,39.20
2018-02-16T16:28:35.509Z,42.33
2018-02-16T16:31:03.124Z,45.13
2018-02-16T16:33:30.656Z,37.70
2018-02-16T16:35:58.173Z,39.50
2018-02-16T16:38:25.727Z,69.60
2018-02-16T16:40:53.276Z,94.37
2018-02-16T16:43:20.788Z,89.03
2018-02-16T16:45:48.347Z,87.40
2018-02-16T16:48:16.717Z,97.27
2018-02-16T16:50:44.244Z,76.93
2018-02-16T16:53:11.800Z,89.03
2018-02-16T16:55:39.352Z,96.47
2018-02-16T16:58:06.919Z,110.83
2018-02-16T17:00:34.506Z,103.80
2018-02-16T17:03:02.046Z,95.87
2018-02-16T17:05:29.611Z,109.30
2018-02-16T17:07:57.162Z,86.93
2018-02-16T17:10:25.891Z,84.67
2018-02-16T17:12:53.425Z,94.67
2018-02-16T17:15:20.962Z,93.27
2018-02-16T17:17:48.502Z,91.70
2018-02-16T17:20:16.025Z,95.20
2018-02-16T17:22:43.684Z,106.37
2018-02-16T17:25:11.223Z,115.93
2018-02-16T17:27:38.772Z,99.40
2018-02-16T17:30:08.680Z,86.50
2018-02-16T17:32:36.463Z,72.60
2018-02-16T17:35:03.992Z,70.70
2018-02-16T17:37:31.541Z,77.23
2018-02-16T17:39:59.072Z,101.47
2018-02-16T17:42:26.673Z,113.60
2018-02-16T17:44:54.232Z,100.43
2018-02-16T17:47:21.772Z,89.97
2018-02-16T17:49:49.306Z,87.00
2018-02-16T17:52:16.866Z,83.13
2018-02-16T17:54:44.384Z,107.07
2018-02-16T17:57:11.928Z,110.03
2018-02-16T17:59:39.492Z,112.07
2018-02-16T18:02:07.079Z,84.37
2018-02-16T18:04:34.610Z,103.73
2018-02-16T18:07:02.154Z,78.40
2018-02-16T18:09:29.857Z,69.87
2018-02-16T18:11:57.445Z,89.23
2018-02-16T18:14:24.966Z,79.70
2018-02-16T18:16:52.543Z,73.97
2018-02-16T18:19:20.087Z,78.00
2018-02-16T18:21:47.630Z,90.33
2018-02-16T18:24:15.264Z,79.67
2018-02-16T18:26:42.807Z,76.63
2018-02-16T18:29:10.406Z,76.70
2018-02-16T18:31:37.967Z,87.90
2018-02-16T18:34:05.501Z,84.97
2018-02-16T18:36:33.039Z,101.13
2018-02-16T18:39:00.701Z,112.37
2018-02-16T18:41:28.240Z,98.40
2018-02-16T18:43:56.236Z,110.60
2018-02-16T18:46:24.581Z,184.40
2018-02-16T18:48:52.105Z,200.50
2018-02-16T18:51:19.700Z,190.10
2018-02-16T18:53:47.262Z,170.60
2018-02-16T18:56:14.808Z,154.73
2018-02-16T18:58:42.632Z,166.37
2018-02-16T19:01:10.294Z,147.13
2018-02-16T19:03:37.837Z,154.20
2018-02-16T19:06:05.395Z,145.77
2018-02-16T19:08:32.945Z,174.90
2018-02-16T19:11:00.480Z,157.93
2018-02-16T19:13:28.016Z,153.80
2018-02-16T19:15:55.561Z,144.30
2018-02-16T19:18:23.143Z,148.73
2018-02-16T19:20:50.692Z,158.77
2018-02-16T19:23:18.252Z,153.53
2018-02-16T19:25:45.802Z,158.00
2018-02-16T19:28:13.336Z,144.53
2018-02-16T19:30:41.174Z,149.83
2018-02-16T19:33:08.725Z,164.57
2018-02-16T19:35:36.414Z,156.60
2018-02-16T19:38:03.962Z,155.23
2018-02-16T19:40:31.500Z,160.90
2018-02-16T19:42:59.098Z,146.40
2018-02-16T19:45:26.636Z,142.13
2018-02-16T19:47:54.150Z,131.07
2018-02-16T19:50:21.681Z,126.00
2018-02-16T19:52:49.227Z,135.90
2018-02-16T19:55:16.848Z,127.13
2018-02-16T19:57:45.243Z,134.73
2018-02-16T20:00:12.953Z,161.13
2018-02-16T20:02:40.477Z,171.07
2018-02-16T20:05:07.995Z,168.20
2018-02-16T20:07:35.536Z,201.43
2018-02-16T20:10:03.076Z,197.80
2018-02-16T20:12:30.611Z,166.93
2018-02-16T20:14:58.168Z,160.73
2018-02-16T20:17:25.706Z,175.53
2018-02-16T20:19:53.251Z,183.23
2018-02-16T20:22:20.817Z,164.30
2018-02-16T20:24:48.337Z,190.67
2018-02-16T20:27:15.927Z,200.20
2018-02-16T20:29:43.500Z,215.43
2018-02-16T20:32:11.055Z,188.93
2018-02-16T20:34:39.388Z,192.10
2018-02-16T20:37:09.745Z,198.03
2018-02-16T20:39:37.327Z,232.43
2018-02-16T20:42:04.866Z,242.13
2018-02-16T20:44:32.397Z,291.10
2018-02-16T20:46:59.960Z,308.10
2018-02-16T20:49:27.510Z,297.97
2018-02-16T20:51:55.923Z,338.37
2018-02-16T20:54:24.500Z,337.83
2018-02-16T20:56:52.069Z,318.90
2018-02-16T20:59:19.664Z,368.97
2018-02-16T21:01:47.209Z,368.13
2018-02-16T21:04:14.830Z,350.13
2018-02-16T21:06:42.418Z,324.97
2018-02-16T21:09:09.988Z,310.87
2018-02-16T21:11:37.524Z,296.20
2018-02-16T21:14:05.094Z,285.17
2018-02-16T21:16:32.662Z,275.20
2018-02-16T21:19:00.206Z,268.10
2018-02-16T21:21:27.732Z,251.67
2018-02-16T21:23:55.301Z,248.57
2018-02-16T21:26:23.112Z,236.93
2018-02-16T21:28:50.638Z,210.53
2018-02-16T21:31:18.179Z,232.30
2018-02-16T21:33:45.717Z,204.53
2018-02-16T21:36:13.250Z,187.43
2018-02-16T21:38:40.785Z,181.30
2018-02-16T21:41:08.309Z,146.80
2018-02-16T21:43:35.890Z,139.93
2018-02-16T21:46:03.438Z,119.57
2018-02-16T21:48:31.021Z,121.37
2018-02-16T21:50:58.559Z,117.07
2018-02-16T21:53:26.878Z,133.60
2018-02-16T21:55:54.417Z,118.97
2018-02-16T21:58:21.966Z,118.67
2018-02-16T22:00:49.516Z,118.47
2018-02-16T22:03:17.039Z,116.63
2018-02-16T22:05:44.576Z,120.77
2018-02-16T22:08:12.190Z,122.43
2018-02-16T22:10:39.698Z,109.10
2018-02-16T22:13:07.269Z,109.93
2018-02-16T22:15:35.780Z,111.35
2018-02-16T22:18:03.308Z,104.87
2018-02-16T22:20:30.821Z,102.90
2018-02-16T22:22:58.370Z,130.73
2018-02-16T22:25:25.912Z,164.60
2018-02-16T22:27:53.449Z,146.33
2018-02-16T22:30:21.005Z,129.83
2018-02-16T22:32:48.548Z,122.20
2018-02-16T22:35:16.168Z,111.40
2018-02-16T22:37:44.039Z,119.50
2018-02-16T22:40:11.609Z,126.40
2018-02-16T22:42:39.147Z,123.37
2018-02-16T22:45:06.762Z,118.40
2018-02-16T22:47:34.318Z,118.75
2018-02-16T22:50:01.845Z,126.68
2018-02-16T22:52:29.391Z,132.07
2018-02-16T22:54:56.913Z,124.68
2018-02-16T22:57:24.450Z,133.90
2018-02-16T22:59:52.039Z,134.63
2018-02-16T23:02:19.662Z,139.50
2018-02-16T23:04:47.193Z,137.60
2018-02-16T23:07:14.730Z,146.33
2018-02-16T23:09:42.292Z,137.73
2018-02-16T23:12:09.835Z,126.63
2018-02-16T23:14:37.372Z,129.63
2018-02-16T23:17:05.911Z,125.75
2018-02-16T23:19:33.442Z,128.53
2018-02-16T23:22:01.084Z,136.03
2018-02-16T23:24:28.651Z,139.23
2018-02-16T23:26:56.174Z,133.50
2018-02-16T23:29:23.704Z,124.87
2018-02-16T23:31:51.290Z,137.23
2018-02-16T23:34:18.839Z,128.57
2018-02-16T23:36:46.398Z,133.47
2018-02-16T23:39:13.953Z,114.00
2018-02-16T23:41:41.469Z,112.60
2018-02-16T23:44:08.957Z,106.80
2018-02-16T23:46:36.505Z,93.53
2018-02-16T23:49:04.050Z,103.75
2018-02-16T23:51:31.589Z,102.50
2018-02-16T23:53:59.162Z,107.47
2018-02-16T23:56:26.697Z,115.53
2018-02-16T23:58:54.251Z,103.25
